Time;durP1;ratioP1;P1;durP2;ratioP2;P2;SDS_P1;SDS_P2;PMS_P1;PMS_P2;Temp;Humidity;BMP_temperature;BMP_pressure;BME280_temperature;BME280_humidity;BME280_pressure;Samples;Min_cycle;Max_cycle;Signal;HPM_P1;HPM_P2
2023/05/30 00:09:21;;;;;;;9.30;6.47;;;12.50;99.90;;;;;;20917312;28;20036;-56
2023/05/30 00:19:23;;;;;;;8.20;6.07;;;12.70;99.90;;;;;;20911541;28;20086;-45
2023/05/30 00:29:25;;;;;;;9.45;5.70;;;12.60;99.90;;;;;;20911598;28;20028;-47
2023/05/30 00:39:26;;;;;;;7.80;5.68;;;12.70;99.90;;;;;;20910734;28;20040;-56
2023/05/30 00:49:28;;;;;;;8.13;5.57;;;12.70;99.90;;;;;;20909649;28;20423;-47
2023/05/30 00:59:30;;;;;;;12.27;5.85;;;12.50;99.90;;;;;;20909769;28;20049;-55
2023/05/30 01:09:32;;;;;;;7.95;5.57;;;12.40;99.90;;;;;;20908466;28;20044;-56
2023/05/30 01:20:09;;;;;;;12.18;5.70;;;12.30;99.90;;;;;;20911476;28;20025;-49
2023/05/30 01:30:12;;;;;;;8.50;5.32;;;11.90;99.90;;;;;;20903738;28;20115;-56
2023/05/30 01:40:17;;;;;;;8.85;4.78;;;11.90;99.90;;;;;;20909567;28;20446;-46
2023/05/30 01:50:31;;;;;;;7.75;5.03;;;11.90;99.90;;;;;;20908360;28;20083;-47
2023/05/30 02:00:34;;;;;;;8.05;4.28;;;11.90;99.90;;;;;;20888191;28;20037;-45
2023/05/30 02:10:36;;;;;;;7.68;4.60;;;11.80;99.90;;;;;;20910689;28;20429;-48
2023/05/30 02:20:37;;;;;;;7.82;5.20;;;11.80;99.90;;;;;;20903072;28;20075;-47
2023/05/30 02:30:42;;;;;;;8.30;5.05;;;11.70;99.90;;;;;;20904121;28;20044;-54
2023/05/30 02:40:44;;;;;;;6.00;3.85;;;11.60;99.90;;;;;;20900355;28;20049;-54
2023/05/30 02:50:46;;;;;;;7.00;4.07;;;11.50;99.90;;;;;;20900698;28;20036;-47
2023/05/30 03:00:53;;;;;;;7.10;4.07;;;11.50;99.90;;;;;;20899322;28;20532;-46
2023/05/30 03:10:57;;;;;;;7.22;4.10;;;11.50;99.90;;;;;;20902266;28;20106;-52
2023/05/30 03:20:59;;;;;;;9.73;4.55;;;11.60;99.90;;;;;;20902177;28;20032;-48
2023/05/30 03:31:01;;;;;;;8.73;4.70;;;11.60;99.90;;;;;;20899757;28;20052;-45
2023/05/30 03:41:03;;;;;;;7.78;4.72;;;11.50;99.90;;;;;;20901026;28;20049;-50
2023/05/30 03:51:05;;;;;;;6.20;4.25;;;11.50;99.90;;;;;;20895828;28;20079;-56
2023/05/30 04:01:07;;;;;;;6.63;4.50;;;11.50;99.90;;;;;;20901539;28;20072;-48
2023/05/30 04:11:09;;;;;;;7.75;4.35;;;11.60;99.90;;;;;;20915111;28;20474;-47
2023/05/30 04:21:14;;;;;;;13.38;4.53;;;11.70;99.90;;;;;;20910703;28;20033;-48
2023/05/30 04:31:17;;;;;;;8.07;4.63;;;11.80;99.90;;;;;;20912769;28;20090;-56
2023/05/30 04:41:24;;;;;;;7.50;4.20;;;12.00;99.90;;;;;;20908573;28;20048;-56
2023/05/30 04:51:27;;;;;;;7.93;4.72;;;12.20;99.90;;;;;;20908385;28;20033;-56
2023/05/30 05:01:28;;;;;;;6.28;4.07;;;12.60;99.90;;;;;;20908029;28;20033;-55
2023/05/30 05:11:30;;;;;;;7.13;4.15;;;12.90;99.90;;;;;;20907783;28;20033;-55
2023/05/30 05:21:31;;;;;;;7.45;4.45;;;13.20;99.90;;;;;;20906675;28;20082;-55
2023/05/30 05:31:33;;;;;;;6.55;4.55;;;13.50;99.90;;;;;;20910733;28;20037;-46
2023/05/30 05:41:35;;;;;;;6.68;4.22;;;13.90;99.90;;;;;;20905767;28;20118;-46
2023/05/30 05:51:36;;;;;;;6.45;4.03;;;14.50;99.90;;;;;;20912249;28;20036;-50
2023/05/30 06:01:38;;;;;;;6.90;4.80;;;15.20;99.90;;;;;;20906680;28;20036;-55
2023/05/30 06:11:40;;;;;;;6.70;4.35;;;15.80;99.90;;;;;;20906263;28;20033;-57
2023/05/30 06:21:41;;;;;;;5.45;4.10;;;17.70;99.90;;;;;;20902466;28;20041;-57
2023/05/30 06:31:43;;;;;;;6.65;3.92;;;20.20;99.90;;;;;;20899637;28;20029;-53
2023/05/30 06:41:45;;;;;;;4.60;3.78;;;21.40;99.00;;;;;;20905627;28;20106;-58
2023/05/30 06:51:47;;;;;;;4.65;3.95;;;22.70;97.60;;;;;;20910997;28;20381;-58
2023/05/30 07:01:49;;;;;;;5.22;4.18;;;24.40;95.10;;;;;;20900794;28;20037;-58
2023/05/30 07:11:51;;;;;;;4.28;3.72;;;24.70;94.90;;;;;;20903451;28;20041;-49
2023/05/30 07:21:53;;;;;;;7.55;4.10;;;25.10;94.20;;;;;;20902839;28;20067;-58
2023/05/30 07:31:54;;;;;;;5.22;4.03;;;25.40;91.60;;;;;;20903903;28;20382;-58
2023/05/30 07:41:56;;;;;;;5.60;4.38;;;23.80;92.10;;;;;;20907824;28;20072;-57
2023/05/30 07:51:58;;;;;;;5.80;4.60;;;20.40;96.70;;;;;;20913060;28;20063;-57
2023/05/30 08:01:59;;;;;;;6.07;4.45;;;18.30;99.50;;;;;;20917622;28;20429;-47
2023/05/30 08:12:02;;;;;;;7.53;4.40;;;18.10;99.90;;;;;;20913094;28;20387;-47
2023/05/30 08:22:04;;;;;;;6.57;4.78;;;20.40;99.90;;;;;;20915953;28;20360;-57
2023/05/30 08:32:06;;;;;;;5.60;4.60;;;22.50;96.60;;;;;;20916030;28;20024;-57
2023/05/30 08:42:08;;;;;;;8.00;5.30;;;22.10;95.30;;;;;;20916941;28;20056;-56
2023/05/30 08:52:13;;;;;;;5.82;4.53;;;21.90;96.20;;;;;;20916701;28;20052;-57
2023/05/30 09:02:19;;;;;;;7.80;5.25;;;23.30;95.70;;;;;;20915354;28;20033;-57
2023/05/30 09:12:22;;;;;;;6.45;4.53;;;24.70;94.10;;;;;;20906897;28;20041;-57
2023/05/30 09:22:26;;;;;;;5.95;5.32;;;24.90;93.00;;;;;;20906911;28;20556;-57
2023/05/30 09:32:29;;;;;;;7.03;5.40;;;25.10;94.70;;;;;;20906949;28;20032;-57
2023/05/30 09:42:45;;;;;;;7.70;5.78;;;24.40;94.80;;;;;;20905794;28;20060;-57
2023/05/30 09:53:05;;;;;;;7.65;5.60;;;22.90;95.40;;;;;;20904773;28;20525;-57
2023/05/30 10:03:07;;;;;;;8.32;6.07;;;20.40;97.50;;;;;;20900212;28;20050;-57
2023/05/30 10:13:08;;;;;;;6.20;5.10;;;19.40;99.80;;;;;;20908075;28;20095;-57
2023/05/30 10:23:13;;;;;;;8.15;5.93;;;19.70;99.40;;;;;;20903320;28;20071;-57
2023/05/30 10:33:16;;;;;;;9.20;6.45;;;20.10;98.90;;;;;;20902827;28;20041;-56
2023/05/30 10:43:24;;;;;;;9.23;6.80;;;20.90;98.10;;;;;;20902214;28;20036;-56
2023/05/30 10:53:26;;;;;;;11.07;6.90;;;21.10;95.90;;;;;;20900833;28;20079;-56
2023/05/30 11:03:36;;;;;;;9.18;7.13;;;20.80;95.70;;;;;;20910532;28;20064;-48
2023/05/30 11:13:43;;;;;;;12.23;7.20;;;20.70;98.50;;;;;;20901371;28;20028;-57
2023/05/30 11:24:00;;;;;;;15.38;8.00;;;20.60;98.70;;;;;;20916664;28;20078;-56
2023/05/30 11:34:02;;;;;;;11.48;7.80;;;21.40;99.20;;;;;;20917458;28;20052;-56
2023/05/30 11:44:04;;;;;;;10.45;8.68;;;22.20;96.50;;;;;;20915789;28;20036;-57
2023/05/30 11:54:09;;;;;;;12.90;8.68;;;22.30;98.30;;;;;;20914276;28;20071;-57
2023/05/30 12:04:10;;;;;;;12.68;9.10;;;23.50;95.90;;;;;;20917842;28;20032;-56
2023/05/30 12:14:12;;;;;;;10.85;8.55;;;24.40;95.10;;;;;;20913187;28;20033;-57
2023/05/30 12:24:14;;;;;;;8.38;6.38;;;23.60;95.10;;;;;;20912052;28;20466;-57
2023/05/30 12:34:16;;;;;;;9.93;7.25;;;21.50;97.10;;;;;;20917455;28;20493;-57
2023/05/30 12:44:17;;;;;;;10.55;7.13;;;19.90;98.70;;;;;;20915046;28;20068;-57
2023/05/30 12:54:25;;;;;;;10.90;8.25;;;19.40;99.80;;;;;;20909532;28;20039;-57
2023/05/30 13:04:28;;;;;;;10.80;6.37;;;20.70;99.90;;;;;;20909423;28;20071;-57
2023/05/30 13:14:31;;;;;;;8.10;6.20;;;21.50;97.90;;;;;;20908216;28;20037;-46
2023/05/30 13:24:33;;;;;;;8.13;6.45;;;22.60;97.10;;;;;;20907389;28;20029;-47
2023/05/30 13:34:34;;;;;;;7.53;6.15;;;22.80;92.90;;;;;;20912277;28;20045;-58
2023/05/30 13:44:36;;;;;;;8.60;6.35;;;22.90;95.50;;;;;;20914117;28;20563;-58
2023/05/30 13:54:40;;;;;;;10.25;7.00;;;23.30;94.20;;;;;;20905406;28;20037;-45
2023/05/30 14:04:42;;;;;;;8.90;6.78;;;24.00;93.30;;;;;;20901337;28;20094;-58
2023/05/30 14:14:44;;;;;;;10.85;6.40;;;23.60;93.70;;;;;;20907740;28;20033;-58
2023/05/30 14:24:46;;;;;;;8.93;6.95;;;22.50;95.70;;;;;;20903377;28;20028;-57
2023/05/30 14:34:47;;;;;;;11.07;6.80;;;21.50;96.10;;;;;;20902284;28;20052;-57
2023/05/30 14:44:51;;;;;;;8.05;6.75;;;21.30;97.80;;;;;;20902953;28;20052;-57
2023/05/30 14:54:53;;;;;;;8.98;7.03;;;21.80;95.90;;;;;;20913188;28;20379;-57
2023/05/30 15:04:54;;;;;;;10.75;6.90;;;21.40;96.10;;;;;;20907622;28;20033;-57
2023/05/30 15:14:56;;;;;;;8.90;6.50;;;21.40;96.60;;;;;;20900866;28;20456;-58
2023/05/30 15:25:00;;;;;;;9.82;7.10;;;23.10;94.90;;;;;;20905549;28;20094;-50
2023/05/30 15:35:02;;;;;;;12.82;7.43;;;23.40;92.40;;;;;;20898935;28;20037;-57
2023/05/30 15:45:05;;;;;;;9.70;7.05;;;21.80;92.30;;;;;;20904943;28;20034;-57
2023/05/30 15:55:07;;;;;;;10.80;7.68;;;19.70;96.60;;;;;;20903108;28;20049;-56
2023/05/30 16:05:09;;;;;;;10.55;6.97;;;18.70;98.60;;;;;;20909251;28;20071;-49
2023/05/30 16:15:11;;;;;;;10.80;7.28;;;17.90;99.90;;;;;;20912874;28;20504;-57
2023/05/30 16:25:13;;;;;;;10.40;7.72;;;17.60;99.90;;;;;;20912317;28;20033;-57
2023/05/30 16:35:15;;;;;;;13.15;8.07;;;18.10;99.90;;;;;;20916000;28;20061;-57
2023/05/30 16:45:16;;;;;;;12.40;7.95;;;17.90;99.90;;;;;;20913628;28;20037;-57
2023/05/30 16:55:18;;;;;;;10.02;7.40;;;17.30;99.90;;;;;;20913722;28;20033;-55
2023/05/30 17:05:20;;;;;;;10.07;7.45;;;16.80;99.90;;;;;;20904934;28;20470;-57
2023/05/30 17:15:22;;;;;;;13.35;8.48;;;16.30;99.90;;;;;;20906790;28;20025;-57
2023/05/30 17:25:25;;;;;;;12.02;8.00;;;15.90;99.90;;;;;;20908484;28;20040;-57
2023/05/30 17:35:27;;;;;;;10.90;7.97;;;15.60;99.90;;;;;;20907113;28;20474;-57
2023/05/30 17:45:29;;;;;;;10.52;7.75;;;15.30;99.90;;;;;;20906313;28;20398;-57
2023/05/30 17:55:30;;;;;;;12.98;7.80;;;15.10;99.90;;;;;;20904606;28;20390;-57
2023/05/30 18:05:32;;;;;;;11.40;8.13;;;15.00;99.90;;;;;;20903035;28;20037;-57
2023/05/30 18:15:34;;;;;;;13.70;8.10;;;15.00;99.90;;;;;;20907912;28;20470;-57
2023/05/30 18:25:36;;;;;;;18.05;8.70;;;14.90;99.90;;;;;;20903472;28;20319;-58
2023/05/30 18:35:37;;;;;;;12.77;8.95;;;14.30;99.90;;;;;;20905379;28;20118;-47
2023/05/30 18:45:39;;;;;;;20.15;13.35;;;13.30;99.90;;;;;;20906747;28;20099;-50
2023/05/30 18:55:40;;;;;;;24.58;15.48;;;12.60;99.90;;;;;;20906746;28;20037;-57
2023/05/30 19:05:42;;;;;;;24.02;16.45;;;12.30;99.90;;;;;;20902788;28;20028;-47
2023/05/30 19:15:44;;;;;;;21.50;14.77;;;12.10;99.90;;;;;;20903549;28;20041;-58
2023/05/30 19:25:46;;;;;;;22.98;15.10;;;11.90;99.90;;;;;;20901105;28;20548;-59
2023/05/30 19:35:48;;;;;;;27.38;18.63;;;11.90;99.90;;;;;;20902837;28;20098;-47
2023/05/30 19:45:50;;;;;;;34.47;21.02;;;11.70;99.90;;;;;;20915054;28;20033;-48
2023/05/30 19:55:54;;;;;;;32.83;22.58;;;11.60;99.90;;;;;;20918283;28;20079;-60
2023/05/30 20:05:56;;;;;;;33.17;19.90;;;11.60;99.90;;;;;;20913705;28;20086;-60
2023/05/30 20:15:57;;;;;;;30.60;20.08;;;11.50;99.90;;;;;;20912777;28;20037;-47
2023/05/30 20:25:59;;;;;;;31.48;18.55;;;11.50;99.90;;;;;;20913589;28;20033;-47
2023/05/30 20:36:01;;;;;;;30.58;20.85;;;11.50;99.90;;;;;;20910806;28;20111;-60
2023/05/30 20:46:03;;;;;;;31.45;21.60;;;11.40;99.90;;;;;;20910253;28;20036;-60
2023/05/30 20:56:05;;;;;;;31.10;21.40;;;11.30;99.90;;;;;;20912009;28;20383;-60
2023/05/30 21:06:07;;;;;;;34.08;23.15;;;11.20;99.90;;;;;;20912767;28;20037;-59
2023/05/30 21:16:11;;;;;;;37.00;24.00;;;11.20;99.90;;;;;;20907445;28;20041;-58
2023/05/30 21:26:12;;;;;;;31.95;21.50;;;11.10;99.90;;;;;;20907062;28;20458;-59
2023/05/30 21:36:14;;;;;;;27.45;19.48;;;11.10;99.90;;;;;;20906940;28;20075;-58
2023/05/30 21:46:16;;;;;;;26.98;20.45;;;11.10;99.90;;;;;;20908074;28;20124;-58
2023/05/30 21:56:18;;;;;;;22.23;15.18;;;11.10;99.90;;;;;;20904276;28;20098;-58
2023/05/30 22:06:20;;;;;;;18.88;11.85;;;11.10;99.90;;;;;;20908355;28;20037;-58
2023/05/30 22:16:22;;;;;;;12.75;9.10;;;11.10;99.90;;;;;;20905304;28;20029;-57
2023/05/30 22:26:25;;;;;;;14.55;9.80;;;11.20;99.90;;;;;;20905028;28;20502;-57
2023/05/30 22:36:27;;;;;;;11.02;7.70;;;11.00;99.90;;;;;;20902121;28;20037;-58
2023/05/30 22:46:28;;;;;;;10.13;6.47;;;10.90;99.90;;;;;;20902375;28;20102;-50
2023/05/30 22:56:30;;;;;;;8.68;5.50;;;10.80;99.90;;;;;;20909308;28;20033;-46
2023/05/30 23:06:32;;;;;;;10.30;5.43;;;10.60;99.90;;;;;;20901691;28;20032;-57
2023/05/30 23:16:33;;;;;;;7.07;4.78;;;10.50;99.90;;;;;;20918806;28;20466;-46
2023/05/30 23:26:35;;;;;;;7.28;4.43;;;10.40;99.90;;;;;;20922922;28;20539;-50
2023/05/30 23:36:37;;;;;;;6.30;4.07;;;10.40;99.90;;;;;;20920313;28;20114;-56
2023/05/30 23:46:39;;;;;;;10.32;4.78;;;10.50;99.90;;;;;;20921457;28;20429;-47
2023/05/30 23:56:40;;;;;;;7.38;4.00;;;10.50;99.90;;;;;;20915304;28;20037;-46
